createdAt,value
2022-11-20T00:01:30.025Z,101423.66
2022-11-20T00:03:58.945Z,101416.03
2022-11-20T00:06:27.064Z,101409.28
2022-11-20T00:08:57.516Z,101417.41
2022-11-20T00:11:25.803Z,101417.13
2022-11-20T00:13:55.964Z,101414.94
2022-11-20T00:16:25.465Z,101405.72
2022-11-20T00:18:53.188Z,101397.34
2022-11-20T00:21:25.594Z,101403.81
2022-11-20T00:23:55.276Z,101397.59
2022-11-20T00:26:23.911Z,101407.88
2022-11-20T00:28:53.502Z,101401.59
2022-11-20T00:31:20.599Z,101400.00
2022-11-20T00:33:47.759Z,101393.22
2022-11-20T00:36:20.440Z,101391.53
2022-11-20T00:38:47.961Z,101395.06
2022-11-20T00:41:16.693Z,101391.03
2022-11-20T00:43:44.513Z,101394.03
2022-11-20T00:46:17.192Z,101398.91
2022-11-20T00:48:45.439Z,101389.69
2022-11-20T00:51:14.528Z,101382.09
2022-11-20T00:53:41.480Z,101392.69
2022-11-20T00:56:12.741Z,101394.56
2022-11-20T00:58:41.826Z,101391.59
2022-11-20T01:01:21.042Z,101391.91
2022-11-20T01:03:50.451Z,101386.22
2022-11-20T01:06:22.619Z,101386.22
2022-11-20T01:08:50.891Z,101386.50
2022-11-20T01:11:38.420Z,101389.22
2022-11-20T01:14:10.858Z,101387.03
2022-11-20T01:16:40.978Z,101388.38
2022-11-20T01:19:17.968Z,101389.44
2022-11-20T01:21:47.419Z,101384.28
2022-11-20T01:24:16.796Z,101382.66
2022-11-20T01:26:46.415Z,101377.22
2022-11-20T01:29:25.939Z,101375.88
2022-11-20T01:31:53.753Z,101371.50
2022-11-20T01:34:23.098Z,101372.56
2022-11-20T01:36:50.914Z,101384.22
2022-11-20T01:39:20.906Z,101380.41
2022-11-20T01:42:10.108Z,101371.44
2022-11-20T01:44:52.898Z,101369.84
2022-11-20T01:47:44.882Z,101372.28
2022-11-20T01:50:25.910Z,101368.47
2022-11-20T01:53:12.346Z,101366.03
2022-11-20T01:55:45.603Z,101359.56
2022-11-20T01:58:13.894Z,101355.75
2022-11-20T02:00:41.822Z,101354.09
2022-11-20T02:03:12.828Z,101357.88
2022-11-20T02:06:17.279Z,101348.97
2022-11-20T02:08:44.307Z,101337.59
2022-11-20T02:11:11.178Z,101341.41
2022-11-20T02:13:44.112Z,101342.47
2022-11-20T02:16:24.831Z,101347.03
2022-11-20T02:18:54.406Z,101336.19
2022-11-20T02:21:51.830Z,101330.75
2022-11-20T02:24:20.595Z,101327.19
2022-11-20T02:26:54.329Z,101318.81
2022-11-20T02:29:28.223Z,101315.88
2022-11-20T02:31:57.069Z,101323.44
2022-11-20T02:34:23.941Z,101317.22
2022-11-20T02:36:53.305Z,101322.91
2022-11-20T02:39:22.152Z,101310.97
2022-11-20T02:41:49.101Z,101303.34
2022-11-20T02:44:16.165Z,101305.25
2022-11-20T02:46:43.014Z,101316.34
2022-11-20T02:49:09.872Z,101312.25
2022-11-20T02:51:37.180Z,101308.13
2022-11-20T02:54:04.566Z,101306.25
2022-11-20T02:56:32.052Z,101309.53
2022-11-20T02:58:58.919Z,101307.59
2022-11-20T03:01:25.794Z,101305.69
2022-11-20T03:03:55.495Z,101297.00
2022-11-20T03:06:22.490Z,101297.56
2022-11-20T03:08:49.585Z,101295.41
2022-11-20T03:11:16.345Z,101294.84
2022-11-20T03:13:43.127Z,101300.75
2022-11-20T03:16:19.664Z,101294.50
2022-11-20T03:18:46.859Z,101299.38
2022-11-20T03:21:14.948Z,101296.09
2022-11-20T03:23:42.898Z,101296.63
2022-11-20T03:26:18.464Z,101299.63
2022-11-20T03:28:53.485Z,101295.00
2022-11-20T03:31:23.425Z,101283.09
2022-11-20T03:33:51.116Z,101282.88
2022-11-20T03:36:19.940Z,101284.44
2022-11-20T03:38:47.244Z,101282.78
2022-11-20T03:41:20.043Z,101270.53
2022-11-20T03:43:56.960Z,101268.94
2022-11-20T03:46:24.206Z,101266.50
2022-11-20T03:48:52.134Z,101257.34
2022-11-20T03:51:21.953Z,101250.66
2022-11-20T03:53:50.395Z,101247.19
2022-11-20T03:56:19.230Z,101254.25
2022-11-20T03:58:46.598Z,101251.81
2022-11-20T04:01:16.668Z,101243.13
2022-11-20T04:03:44.504Z,101235.28
2022-11-20T04:06:14.809Z,101228.56
2022-11-20T04:08:42.193Z,101213.94
2022-11-20T04:11:30.786Z,101216.97
2022-11-20T04:14:03.396Z,101210.25
2022-11-20T04:16:32.455Z,101206.97
2022-11-20T04:19:01.041Z,101197.25
2022-11-20T04:21:29.122Z,101199.47
2022-11-20T04:23:58.029Z,101201.66
2022-11-20T04:26:27.836Z,101203.28
2022-11-20T04:28:55.320Z,101211.69
2022-11-20T04:31:24.879Z,101205.44
2022-11-20T04:33:51.913Z,101203.06
2022-11-20T04:36:21.155Z,101203.06
2022-11-20T04:38:56.544Z,101202.25
2022-11-20T04:41:26.274Z,101196.88
2022-11-20T04:44:00.431Z,101206.38
2022-11-20T04:46:28.629Z,101200.72
2022-11-20T04:48:55.849Z,101199.63
2022-11-20T04:51:23.018Z,101194.75
2022-11-20T04:53:50.159Z,101192.56
2022-11-20T04:56:17.698Z,101192.31
2022-11-20T04:58:44.577Z,101193.06
2022-11-20T05:01:14.353Z,101193.31
2022-11-20T05:03:42.916Z,101193.00
2022-11-20T05:06:11.995Z,101190.56
2022-11-20T05:08:39.072Z,101192.97
2022-11-20T05:11:14.089Z,101186.69
2022-11-20T05:13:41.362Z,101185.34
2022-11-20T05:16:11.183Z,101182.34
2022-11-20T05:18:39.159Z,101183.16
2022-11-20T05:21:07.140Z,101171.44
2022-11-20T05:23:35.471Z,101171.75
2022-11-20T05:26:02.678Z,101171.69
2022-11-20T05:28:31.015Z,101173.56
2022-11-20T05:31:09.170Z,101172.44
2022-11-20T05:33:37.204Z,101165.63
2022-11-20T05:36:05.209Z,101160.72
2022-11-20T05:38:33.113Z,101162.59
2022-11-20T05:41:08.222Z,101160.34
2022-11-20T05:43:35.919Z,101162.75
2022-11-20T05:46:03.632Z,101169.50
2022-11-20T05:48:30.940Z,101173.28
2022-11-20T05:50:59.313Z,101180.03
2022-11-20T05:53:27.698Z,101175.69
2022-11-20T05:56:03.024Z,101183.81
2022-11-20T05:58:30.575Z,101178.94
2022-11-20T06:01:09.093Z,101184.63
2022-11-20T06:03:36.018Z,101173.75
2022-11-20T06:06:04.444Z,101177.31
2022-11-20T06:08:31.835Z,101170.50
2022-11-20T06:10:58.602Z,101171.06
2022-11-20T06:13:25.883Z,101177.00
2022-11-20T06:15:53.588Z,101182.13
2022-11-20T06:18:21.062Z,101172.63
2022-11-20T06:20:48.000Z,101165.50
2022-11-20T06:23:14.973Z,101175.91
2022-11-20T06:25:43.295Z,101161.56
2022-11-20T06:28:10.384Z,101156.75
2022-11-20T06:30:37.655Z,101152.47
2022-11-20T06:33:04.564Z,101155.22
2022-11-20T06:35:31.384Z,101149.03
2022-11-20T06:37:58.538Z,101155.56
2022-11-20T06:40:25.428Z,101152.91
2022-11-20T06:42:55.314Z,101148.84
2022-11-20T06:45:22.704Z,101152.34
2022-11-20T06:47:49.493Z,101152.66
2022-11-20T06:50:16.432Z,101157.19
2022-11-20T06:52:43.873Z,101162.34
2022-11-20T06:55:10.730Z,101162.59
2022-11-20T06:57:37.468Z,101158.75
2022-11-20T07:00:04.699Z,101161.94
2022-11-20T07:02:31.469Z,101169.00
2022-11-20T07:04:58.485Z,101160.78
2022-11-20T07:07:25.565Z,101159.97
2022-11-20T07:09:52.333Z,101162.09
2022-11-20T07:12:19.149Z,101160.97
2022-11-20T07:14:46.221Z,101166.41
2022-11-20T07:17:13.722Z,101161.78
2022-11-20T07:19:40.654Z,101159.38
2022-11-20T07:22:07.609Z,101158.31
2022-11-20T07:24:34.384Z,101160.19
2022-11-20T07:27:01.436Z,101156.09
2022-11-20T07:29:28.473Z,101150.66
2022-11-20T07:31:57.093Z,101153.72
2022-11-20T07:34:24.451Z,101147.78
2022-11-20T07:36:51.456Z,101142.63
2022-11-20T07:39:18.638Z,101142.38
2022-11-20T07:41:45.956Z,101145.38
2022-11-20T07:44:12.951Z,101132.34
2022-11-20T07:46:39.908Z,101132.63
2022-11-20T07:49:06.935Z,101129.13
2022-11-20T07:51:34.236Z,101124.75
2022-11-20T07:54:01.107Z,101129.28
2022-11-20T07:56:28.043Z,101128.78
2022-11-20T07:58:54.947Z,101118.13
2022-11-20T08:01:21.840Z,101122.78
2022-11-20T08:03:48.721Z,101127.63
2022-11-20T08:06:15.860Z,101129.22
2022-11-20T08:08:43.225Z,101130.78
2022-11-20T08:11:28.677Z,101138.59
2022-11-20T08:14:14.326Z,101133.69
2022-11-20T08:16:43.136Z,101137.97
2022-11-20T08:19:10.119Z,101135.00
2022-11-20T08:21:38.499Z,101138.13
2022-11-20T08:24:06.046Z,101130.22
2022-11-20T08:26:32.938Z,101128.00
2022-11-20T08:29:00.264Z,101128.16
2022-11-20T08:31:28.050Z,101134.88
2022-11-20T08:33:55.358Z,101140.41
2022-11-20T08:36:23.658Z,101138.88
2022-11-20T08:38:54.927Z,101134.41
2022-11-20T08:41:25.633Z,101137.38
2022-11-20T08:43:58.044Z,101139.41
2022-11-20T08:46:32.112Z,101136.94
2022-11-20T08:48:59.018Z,101132.22
2022-11-20T08:51:25.820Z,101136.56
2022-11-20T08:53:52.720Z,101140.16
2022-11-20T08:56:19.510Z,101139.94
2022-11-20T08:59:16.504Z,101142.28
2022-11-20T09:01:33.355Z,101147.13
2022-11-20T09:04:00.817Z,101152.97
2022-11-20T09:06:28.028Z,101150.41
2022-11-20T09:08:55.679Z,101155.03
2022-11-20T09:11:22.937Z,101155.78
2022-11-20T09:13:50.368Z,101141.34
2022-11-20T09:16:17.314Z,101146.66
2022-11-20T09:18:44.273Z,101148.34
2022-11-20T09:21:13.050Z,101145.63
2022-11-20T09:23:40.877Z,101141.22
2022-11-20T09:26:13.445Z,101132.09
2022-11-20T09:28:40.925Z,101135.91
2022-11-20T09:31:24.348Z,101125.84
2022-11-20T09:33:51.225Z,101130.31
2022-11-20T09:36:19.589Z,101133.16
2022-11-20T09:38:47.294Z,101128.78
2022-11-20T09:42:05.102Z,101121.44
2022-11-20T09:44:34.884Z,101129.72
2022-11-20T09:47:14.145Z,101126.19
2022-11-20T09:50:18.371Z,101128.41
2022-11-20T09:53:08.983Z,101125.69
2022-11-20T09:55:38.358Z,101121.66
2022-11-20T09:58:17.662Z,101116.00
2022-11-20T10:00:45.563Z,101112.09
2022-11-20T10:03:20.746Z,101113.00
2022-11-20T10:05:53.386Z,101119.06
2022-11-20T10:08:30.463Z,101108.97
2022-11-20T10:11:31.492Z,101106.56
2022-11-20T10:14:14.931Z,101103.16
2022-11-20T10:17:01.593Z,101102.84
2022-11-20T10:19:56.084Z,101096.19
2022-11-20T10:22:44.624Z,101098.06
2022-11-20T10:25:24.696Z,101104.00
2022-11-20T10:28:23.381Z,101100.50
2022-11-20T10:31:02.118Z,101101.59
2022-11-20T10:33:50.113Z,101100.91
2022-11-20T10:36:53.843Z,101092.31
2022-11-20T10:39:27.187Z,101079.72
2022-11-20T10:41:54.833Z,101071.31
2022-11-20T10:44:45.614Z,101066.75
2022-11-20T10:47:18.201Z,101063.25
2022-11-20T10:49:49.652Z,101068.22
2022-11-20T10:52:33.693Z,101062.50
2022-11-20T10:55:13.081Z,101065.50
2022-11-20T10:57:56.137Z,101059.44
2022-11-20T11:00:23.011Z,101058.75
2022-11-20T11:02:51.581Z,101052.97
2022-11-20T11:05:21.200Z,101053.22
2022-11-20T11:07:51.554Z,101044.28
2022-11-20T11:10:40.045Z,101044.47
2022-11-20T11:13:07.101Z,101041.25
2022-11-20T11:15:42.186Z,101042.38
2022-11-20T11:18:11.574Z,101056.75
2022-11-20T11:20:39.366Z,101045.47
2022-11-20T11:23:12.461Z,101037.97
2022-11-20T11:25:39.278Z,101035.19
2022-11-20T11:28:21.929Z,101027.31
2022-11-20T11:30:51.498Z,101022.09
2022-11-20T11:33:24.458Z,101015.72
2022-11-20T11:35:53.996Z,101011.50
2022-11-20T11:38:37.671Z,101005.56
2022-11-20T11:41:06.864Z,101004.44
2022-11-20T11:43:54.691Z,100991.84
2022-11-20T11:46:21.497Z,100989.19
2022-11-20T11:49:10.846Z,100981.75
2022-11-20T11:51:48.664Z,100982.88
2022-11-20T11:54:25.125Z,100977.66
2022-11-20T11:56:52.863Z,100968.13
2022-11-20T11:59:33.893Z,100970.03
2022-11-20T12:02:09.335Z,100968.75
2022-11-20T12:04:47.831Z,100968.25
2022-11-20T12:07:45.372Z,100966.44
2022-11-20T12:10:22.334Z,100972.09
2022-11-20T12:12:55.869Z,100967.63
2022-11-20T12:15:30.000Z,100972.47
2022-11-20T12:17:57.366Z,100976.06
2022-11-20T12:20:29.851Z,100964.34
2022-11-20T12:23:16.455Z,100958.09
2022-11-20T12:25:47.225Z,100950.25
2022-11-20T12:28:32.838Z,100944.16
2022-11-20T12:31:18.463Z,100943.47
2022-11-20T12:34:21.660Z,100945.31
2022-11-20T12:37:07.829Z,100937.47
2022-11-20T12:39:48.619Z,100942.13
2022-11-20T12:46:23.146Z,100923.88
2022-11-20T12:49:05.182Z,100916.38
2022-11-20T12:51:42.394Z,100910.13
2022-11-20T12:54:47.675Z,100912.31
2022-11-20T12:57:26.933Z,100913.91
2022-11-20T13:00:03.260Z,100900.88
2022-11-20T13:02:52.357Z,100893.97
2022-11-20T13:05:39.415Z,100905.72
2022-11-20T13:08:16.013Z,100906.22
2022-11-20T13:11:04.340Z,100896.91
2022-11-20T13:13:57.400Z,100895.47
2022-11-20T13:16:44.137Z,100896.97
2022-11-20T13:19:15.549Z,100887.53
2022-11-20T13:21:47.203Z,100885.97
2022-11-20T13:24:20.479Z,100883.28
2022-11-20T13:26:48.177Z,100887.63
2022-11-20T13:29:20.114Z,100873.34
2022-11-20T13:31:49.467Z,100866.59
2022-11-20T13:34:27.538Z,100871.03
2022-11-20T13:36:57.541Z,100873.44
2022-11-20T13:39:36.430Z,100861.88
2022-11-20T13:42:12.298Z,100865.84
2022-11-20T13:44:43.285Z,100850.13
2022-11-20T13:47:23.089Z,100849.00
2022-11-20T13:49:50.303Z,100837.31
2022-11-20T13:52:35.514Z,100828.03
2022-11-20T13:55:36.966Z,100825.13
2022-11-20T13:58:32.941Z,100814.06
2022-11-20T14:01:09.476Z,100814.88
2022-11-20T14:04:04.541Z,100824.16
2022-11-20T14:06:33.333Z,100826.25
2022-11-20T14:09:01.078Z,100814.81
2022-11-20T14:11:32.254Z,100808.69
2022-11-20T14:14:05.027Z,100807.38
2022-11-20T14:16:35.725Z,100798.38
2022-11-20T14:19:21.049Z,100803.03
2022-11-20T14:21:54.573Z,100786.78
2022-11-20T14:24:25.931Z,100786.13
2022-11-20T14:26:53.673Z,100788.84
2022-11-20T14:29:25.053Z,100785.13
2022-11-20T14:31:55.419Z,100783.03
2022-11-20T14:34:38.049Z,100778.91
2022-11-20T14:37:10.399Z,100769.75
2022-11-20T14:39:49.801Z,100763.97
2022-11-20T14:42:28.111Z,100764.56
2022-11-20T14:45:00.257Z,100762.25
2022-11-20T14:47:30.998Z,100768.72
2022-11-20T14:49:59.642Z,100768.41
2022-11-20T14:52:28.829Z,100760.72
2022-11-20T14:54:57.992Z,100755.28
2022-11-20T14:57:36.955Z,100755.41
2022-11-20T15:00:13.008Z,100748.66
2022-11-20T15:02:44.235Z,100757.94
2022-11-20T15:05:11.169Z,100746.25
2022-11-20T15:07:42.739Z,100743.66
2022-11-20T15:10:13.093Z,100743.97
2022-11-20T15:12:48.782Z,100738.03
2022-11-20T15:15:20.374Z,100736.56
2022-11-20T15:17:47.559Z,100728.53
2022-11-20T15:20:17.046Z,100717.63
2022-11-20T15:22:44.540Z,100720.03
2022-11-20T15:25:18.560Z,100720.84
2022-11-20T15:27:46.880Z,100722.09
2022-11-20T15:30:19.237Z,100718.75
2022-11-20T15:32:49.176Z,100716.63
2022-11-20T15:35:16.711Z,100710.19
2022-11-20T15:37:44.122Z,100706.38
2022-11-20T15:40:11.425Z,100707.47
2022-11-20T15:42:38.313Z,100698.34
2022-11-20T15:45:05.799Z,100697.34
2022-11-20T15:47:35.984Z,100696.53
2022-11-20T15:50:03.263Z,100704.88
2022-11-20T15:52:36.308Z,100702.47
2022-11-20T15:55:12.042Z,100694.75
2022-11-20T15:57:38.995Z,100703.41
2022-11-20T16:00:06.822Z,100700.06
2022-11-20T16:02:37.762Z,100698.44
2022-11-20T16:05:05.679Z,100702.94
2022-11-20T16:07:32.449Z,100697.78
2022-11-20T16:09:59.781Z,100694.56
2022-11-20T16:12:46.887Z,100687.69
2022-11-20T16:15:32.396Z,100689.00
2022-11-20T16:17:59.408Z,100672.84
2022-11-20T16:20:26.276Z,100676.66
2022-11-20T16:22:53.050Z,100672.34
2022-11-20T16:25:20.072Z,100676.66
2022-11-20T16:27:47.125Z,100681.16
2022-11-20T16:30:14.238Z,100675.19
2022-11-20T16:32:41.167Z,100666.22
2022-11-20T16:35:08.521Z,100668.16
2022-11-20T16:37:35.604Z,100667.53
2022-11-20T16:40:02.791Z,100671.84
2022-11-20T16:42:34.685Z,100666.22
2022-11-20T16:45:01.992Z,100676.94
2022-11-20T16:47:28.895Z,100671.38
2022-11-20T16:49:55.776Z,100674.09
2022-11-20T16:52:22.656Z,100667.03
2022-11-20T16:54:49.588Z,100659.81
2022-11-20T16:57:16.560Z,100661.25
2022-11-20T16:59:43.725Z,100657.88
2022-11-20T17:02:10.961Z,100662.00
2022-11-20T17:04:37.915Z,100660.44
2022-11-20T17:07:08.097Z,100649.84
2022-11-20T17:09:35.224Z,100645.19
2022-11-20T17:12:02.596Z,100639.28
2022-11-20T17:14:29.542Z,100636.38
2022-11-20T17:16:56.348Z,100628.81
2022-11-20T17:19:23.290Z,100631.06
2022-11-20T17:21:50.455Z,100621.28
2022-11-20T17:24:17.267Z,100627.53
2022-11-20T17:26:45.304Z,100623.53
2022-11-20T17:29:15.223Z,100617.56
2022-11-20T17:31:43.139Z,100612.75
2022-11-20T17:34:14.801Z,100614.97
2022-11-20T17:36:45.735Z,100619.94
2022-11-20T17:39:15.183Z,100626.69
2022-11-20T17:41:42.191Z,100631.63
2022-11-20T17:44:10.831Z,100622.66
2022-11-20T17:46:37.741Z,100617.09
2022-11-20T17:49:05.085Z,100615.66
2022-11-20T17:51:35.198Z,100612.44
2022-11-20T17:54:05.699Z,100606.00
2022-11-20T17:56:52.426Z,100603.91
2022-11-20T17:59:19.468Z,100606.63
2022-11-20T18:01:46.415Z,100610.13
2022-11-20T18:04:13.887Z,100603.88
2022-11-20T18:06:42.233Z,100592.19
2022-11-20T18:09:09.264Z,100599.44
2022-11-20T18:11:38.727Z,100602.44
2022-11-20T18:14:28.978Z,100605.28
2022-11-20T18:16:58.302Z,100606.59
2022-11-20T18:19:32.150Z,100604.97
2022-11-20T18:22:01.611Z,100609.78
2022-11-20T18:24:28.714Z,100601.63
2022-11-20T18:26:55.743Z,100593.84
2022-11-20T18:29:22.920Z,100598.19
2022-11-20T18:31:50.323Z,100588.53
2022-11-20T18:34:17.296Z,100585.78
2022-11-20T18:36:45.487Z,100581.56
2022-11-20T18:39:13.716Z,100582.34
2022-11-20T18:41:59.930Z,100587.00
2022-11-20T18:44:47.799Z,100584.28
2022-11-20T18:47:19.340Z,100580.88
2022-11-20T18:49:52.791Z,100576.56
2022-11-20T18:52:22.605Z,100576.56
2022-11-20T18:54:50.265Z,100569.50
2022-11-20T18:57:22.524Z,100570.50
2022-11-20T18:59:49.635Z,100566.16
2022-11-20T19:02:19.395Z,100571.59
2022-11-20T19:04:47.196Z,100579.75
2022-11-20T19:07:15.385Z,100574.03
2022-11-20T19:09:45.485Z,100578.34
2022-11-20T19:12:13.260Z,100576.91
2022-11-20T19:14:40.340Z,100590.66
2022-11-20T19:17:08.431Z,100602.00
2022-11-20T19:19:35.720Z,100601.38
2022-11-20T19:22:03.037Z,100599.19
2022-11-20T19:24:30.104Z,100606.72
2022-11-20T19:26:57.371Z,100609.63
2022-11-20T19:29:25.653Z,100618.75
2022-11-20T19:31:53.297Z,100619.56
2022-11-20T19:34:20.350Z,100622.47
2022-11-20T19:36:47.368Z,100618.66
2022-11-20T19:39:14.546Z,100615.22
2022-11-20T19:41:41.775Z,100615.69
2022-11-20T19:44:14.301Z,100610.53
2022-11-20T19:46:42.526Z,100608.94
2022-11-20T19:49:12.496Z,100608.00
2022-11-20T19:51:43.979Z,100599.38
2022-11-20T19:54:10.872Z,100595.03
2022-11-20T19:56:37.784Z,100592.13
2022-11-20T19:59:04.919Z,100587.78
2022-11-20T20:01:32.467Z,100587.00
2022-11-20T20:04:05.625Z,100589.59
2022-11-20T20:06:36.528Z,100588.97
2022-11-20T20:09:06.891Z,100593.31
2022-11-20T20:11:35.190Z,100598.63
2022-11-20T20:14:08.104Z,100599.72
2022-11-20T20:16:35.432Z,100604.88
2022-11-20T20:19:04.003Z,100605.84
2022-11-20T20:21:32.474Z,100598.91
2022-11-20T20:23:59.849Z,100593.78
2022-11-20T20:26:30.119Z,100593.00
2022-11-20T20:28:57.171Z,100592.19
2022-11-20T20:31:26.925Z,100596.81
2022-11-20T20:33:54.408Z,100600.03
2022-11-20T20:36:22.645Z,100596.81
2022-11-20T20:38:53.113Z,100596.81
2022-11-20T20:41:21.310Z,100602.16
2022-11-20T20:44:06.936Z,100613.50
2022-11-20T20:46:33.899Z,100610.50
2022-11-20T20:49:01.707Z,100608.41
2022-11-20T20:51:28.679Z,100605.47
2022-11-20T20:53:56.003Z,100608.22
2022-11-20T20:56:23.055Z,100608.69
2022-11-20T20:58:50.203Z,100611.72
2022-11-20T21:01:19.411Z,100603.06
2022-11-20T21:03:46.308Z,100605.47
2022-11-20T21:06:13.791Z,100613.66
2022-11-20T21:08:43.552Z,100606.09
2022-11-20T21:11:16.954Z,100612.16
2022-11-20T21:13:45.578Z,100598.06
2022-11-20T21:16:14.292Z,100607.03
2022-11-20T21:18:41.786Z,100597.09
2022-11-20T21:21:30.696Z,100597.91
2022-11-20T21:23:57.870Z,100601.56
2022-11-20T21:26:24.900Z,100609.25
2022-11-20T21:28:51.799Z,100613.75
2022-11-20T21:31:25.215Z,100617.59
2022-11-20T21:33:53.929Z,100613.75
2022-11-20T21:36:29.282Z,100605.72
2022-11-20T21:38:57.544Z,100613.47
2022-11-20T21:41:27.017Z,100607.34
2022-11-20T21:44:29.093Z,100613.28
2022-11-20T21:46:44.516Z,100611.84
2022-11-20T21:49:11.839Z,100615.38
2022-11-20T21:51:38.901Z,100611.53
2022-11-20T21:54:05.761Z,100619.19
2022-11-20T21:56:32.874Z,100622.09
2022-11-20T21:58:59.787Z,100612.34
2022-11-20T22:01:29.545Z,100609.78
2022-11-20T22:03:59.405Z,100598.44
2022-11-20T22:06:32.535Z,100593.13
2022-11-20T22:09:01.149Z,100601.75
2022-11-20T22:11:27.994Z,100602.38
2022-11-20T22:14:13.594Z,100599.00
2022-11-20T22:16:40.586Z,100601.72
2022-11-20T22:19:07.524Z,100604.63
2022-11-20T22:21:35.581Z,100603.81
2022-11-20T22:24:02.668Z,100609.44
2022-11-20T22:26:36.103Z,100614.88
2022-11-20T22:29:06.067Z,100613.88
2022-11-20T22:31:33.074Z,100617.09
2022-11-20T22:34:02.384Z,100615.50
2022-11-20T22:36:31.318Z,100615.00
2022-11-20T22:38:58.866Z,100613.41
2022-11-20T22:41:29.116Z,100615.59
2022-11-20T22:44:04.669Z,100625.25
2022-11-20T22:46:34.001Z,100627.69
2022-11-20T22:49:02.825Z,100634.72
2022-11-20T22:51:35.644Z,100629.72
2022-11-20T22:54:05.704Z,100630.53
2022-11-20T22:56:33.617Z,100628.25
2022-11-20T22:59:00.563Z,100638.50
2022-11-20T23:01:35.611Z,100640.22
2022-11-20T23:04:05.534Z,100651.16
2022-11-20T23:06:35.946Z,100654.69
2022-11-20T23:09:05.491Z,100655.31
2022-11-20T23:11:33.137Z,100657.72
2022-11-20T23:14:06.478Z,100653.41
2022-11-20T23:16:34.440Z,100654.50
2022-11-20T23:19:22.626Z,100664.06
2022-11-20T23:21:49.638Z,100660.34
2022-11-20T23:24:16.432Z,100668.50
2022-11-20T23:26:45.318Z,100669.03
2022-11-20T23:29:12.954Z,100662.47
2022-11-20T23:31:39.848Z,100660.06
2022-11-20T23:34:06.976Z,100652.72
2022-11-20T23:36:33.921Z,100646.94
2022-11-20T23:39:00.755Z,100646.66
2022-11-20T23:41:27.651Z,100646.84
2022-11-20T23:43:54.620Z,100650.47
2022-11-20T23:46:21.473Z,100648.09
2022-11-20T23:48:48.301Z,100641.84
2022-11-20T23:51:15.402Z,100648.88
2022-11-20T23:53:42.274Z,100636.59
2022-11-20T23:56:11.105Z,100641.84
2022-11-20T23:58:39.200Z,100625.50
